• Join FlightAware (Why Join?)
  • Login
  • US Flag 
08:15AM EDT


 

Airport Tracker/Info


-or-


 

Live Flight TrackerFlight Track Log ✈ UAL33 ✈ 11-Feb-2014 ✈ RJAA / NRT - KLAX

Flight Track Log - Related Links

Times and Time Zones

All times are in EST time to prevent confusion due to time zone crossing. See the UAL33 flight status page for this flight to view local times or setup timezone preferences in your user account.

Time Position Orientation Groundspeed Altitude Reporting Facility
EST Latitude Longitude Course Direction KTS MPH feet Rate Location/Type
04:29AM 36.2182 141.2532 57° Northeast  Level FlightAware Approximate
04:30AM 36.2932 141.3987 57° Northeast  Level FlightAware Approximate
04:31AM 36.3680 141.5444 57° Northeast  Level FlightAware Approximate
04:32AM 36.4426 141.6904 58° Northeast  Level FlightAware Approximate
04:33AM 36.5170 141.8367 58° Northeast  Level FlightAware Approximate
04:34AM 36.5913 141.9832 58° Northeast  Level FlightAware Approximate
04:35AM 36.6654 142.1301 58° Northeast  Level FlightAware Approximate
04:36AM 36.7398 142.2783 58° Northeast  Level FlightAware Approximate
04:37AM 36.8140 142.4267 58° Northeast  Level FlightAware Approximate
04:38AM 36.8881 142.5755 58° Northeast  Level FlightAware Approximate
04:39AM 36.9566 142.7137 58° Northeast  Level FlightAware Approximate
04:40AM 37.0303 142.8631 58° Northeast  Level FlightAware Approximate
04:41AM 37.1038 143.0127 58° Northeast  Level FlightAware Approximate
04:42AM 37.1771 143.1626 58° Northeast  Level FlightAware Approximate
04:43AM 37.2501 143.3128 59° Northeast  Level FlightAware Approximate
04:44AM 37.3231 143.4633 59° Northeast  Level FlightAware Approximate
04:45AM 37.3958 143.6140 59° Northeast  Level FlightAware Approximate
04:46AM 37.4683 143.7651 59° Northeast  Level FlightAware Approximate
04:47AM 37.5406 143.9165 59° Northeast  Level FlightAware Approximate
04:48AM 37.6128 144.0681 59° Northeast  Level FlightAware Approximate
04:49AM 37.6847 144.2201 59° Northeast  Level FlightAware Approximate
04:50AM 37.7565 144.3723 59° Northeast  Level FlightAware Approximate
04:51AM 37.8280 144.5249 59° Northeast  Level FlightAware Approximate
04:52AM 37.8994 144.6777 59° Northeast  Level FlightAware Approximate
04:53AM 37.9706 144.8309 59° Northeast  Level FlightAware Approximate
04:54AM 38.0415 144.9843 60° Northeast  Level FlightAware Approximate
04:55AM 38.1124 145.1383 60° Northeast  Level FlightAware Approximate
04:56AM 38.1831 145.2926 60° Northeast  Level FlightAware Approximate
04:57AM 38.2536 145.4472 60° Northeast  Level FlightAware Approximate
04:58AM 38.3239 145.6021 60° Northeast  Level FlightAware Approximate
04:59AM 38.3939 145.7573 60° Northeast  Level FlightAware Approximate
05:00AM 38.4638 145.9128 60° Northeast  Level FlightAware Approximate
05:01AM 38.5335 146.0686 60° Northeast  Level FlightAware Approximate
05:02AM 38.6029 146.2247 60° Northeast  Level FlightAware Approximate
05:03AM 38.6722 146.3811 60° Northeast  Level FlightAware Approximate
05:04AM 38.7412 146.5378 61° Northeast  Level FlightAware Approximate
05:05AM 38.8101 146.6948 61° Northeast  Level FlightAware Approximate
05:06AM 38.8787 146.8521 61° Northeast  Level FlightAware Approximate
05:07AM 38.9471 147.0098 61° Northeast  Level FlightAware Approximate
05:08AM 39.0153 147.1677 61° Northeast  Level FlightAware Approximate
05:09AM 39.0833 147.3259 61° Northeast  Level FlightAware Approximate
05:10AM 39.1510 147.4844 61° Northeast  Level FlightAware Approximate
05:11AM 39.2186 147.6433 61° Northeast  Level FlightAware Approximate
05:12AM 39.2859 147.8024 61° Northeast  Level FlightAware Approximate
05:13AM 39.3530 147.9619 61° Northeast  Level FlightAware Approximate
05:14AM 39.4199 148.1216 61° Northeast  Level FlightAware Approximate
05:15AM 39.4866 148.2817 62° Northeast  Level FlightAware Approximate
05:16AM 39.5531 148.4420 62° Northeast  Level FlightAware Approximate
05:17AM 39.6193 148.6027 62° Northeast  Level FlightAware Approximate
05:18AM 39.6853 148.7637 62° Northeast  Level FlightAware Approximate
05:19AM 39.7511 148.9250 62° Northeast  Level FlightAware Approximate
05:20AM 39.8167 149.0866 62° Northeast  Level FlightAware Approximate
05:21AM 39.8821 149.2485 62° Northeast  Level FlightAware Approximate
05:22AM 39.9472 149.4107 62° Northeast  Level FlightAware Approximate
05:23AM 40.0121 149.5732 62° Northeast  Level FlightAware Approximate
05:24AM 40.0768 149.7361 63° Northeast  Level FlightAware Approximate
05:25AM 40.1412 149.8992 63° Northeast  Level FlightAware Approximate
05:26AM 40.2054 150.0626 63° Northeast  Level FlightAware Approximate
05:27AM 40.2694 150.2264 63° Northeast  Level FlightAware Approximate
05:28AM 40.3331 150.3905 63° Northeast  Level FlightAware Approximate
05:29AM 40.3967 150.5549 63° Northeast  Level FlightAware Approximate
05:30AM 40.4600 150.7195 63° Northeast  Level FlightAware Approximate
05:31AM 40.5231 150.8848 63° Northeast  Level FlightAware Approximate
05:32AM 40.5860 151.0504 63° Northeast  Level FlightAware Approximate
05:33AM 40.6487 151.2163 63° Northeast  Level FlightAware Approximate
05:34AM 40.7112 151.3826 64° Northeast  Level FlightAware Approximate
05:35AM 40.7734 151.5491 64° Northeast  Level FlightAware Approximate
05:36AM 40.8354 151.7159 64° Northeast  Level FlightAware Approximate
05:37AM 40.8971 151.8831 64° Northeast  Level FlightAware Approximate
05:38AM 40.9586 152.0506 64° Northeast  Level FlightAware Approximate
05:39AM 41.0198 152.2184 64° Northeast  Level FlightAware Approximate
05:40AM 41.0808 152.3864 64° Northeast  Level FlightAware Approximate
05:41AM 41.1416 152.5549 64° Northeast  Level FlightAware Approximate
05:42AM 41.2021 152.7236 64° Northeast  Level FlightAware Approximate
05:43AM 41.2624 152.8926 65° Northeast  Level FlightAware Approximate
05:44AM 41.3224 153.0620 65° Northeast  Level FlightAware Approximate
05:45AM 41.3822 153.2316 65° Northeast  Level FlightAware Approximate
05:46AM 41.4417 153.4016 65° Northeast  Level FlightAware Approximate
05:47AM 41.5010 153.5718 65° Northeast  Level FlightAware Approximate
05:48AM 41.5600 153.7424 65° Northeast  Level FlightAware Approximate
05:49AM 41.6188 153.9133 65° Northeast  Level FlightAware Approximate
05:50AM 41.6773 154.0845 65° Northeast  Level FlightAware Approximate
05:51AM 41.7355 154.2560 65° Northeast  Level FlightAware Approximate
05:52AM 41.7935 154.4279 66° East  Level FlightAware Approximate
05:53AM 41.8513 154.6000 66° East  Level FlightAware Approximate
05:54AM 41.9088 154.7725 66° East  Level FlightAware Approximate
05:55AM 41.9660 154.9452 66° East  Level FlightAware Approximate
05:56AM 42.0230 155.1183 66° East  Level FlightAware Approximate
05:57AM 42.0797 155.2917 66° East  Level FlightAware Approximate
05:58AM 42.1361 155.4654 66° East  Level FlightAware Approximate
05:59AM 42.1923 155.6394 66° East  Level FlightAware Approximate
06:00AM 42.2482 155.8137 67° East  Level FlightAware Approximate
06:01AM 42.3039 155.9883 67° East  Level FlightAware Approximate
06:02AM 42.3593 156.1632 67° East  Level FlightAware Approximate
06:03AM 42.4144 156.3385 67° East  Level FlightAware Approximate
06:04AM 42.4693 156.5140 67° East  Level FlightAware Approximate
06:05AM 42.5239 156.6898 67° East  Level FlightAware Approximate
06:06AM 42.5782 156.8660 67° East  Level FlightAware Approximate
06:07AM 42.6323 157.0425 67° East  Level FlightAware Approximate
06:08AM 42.6860 157.2192 67° East  Level FlightAware Approximate
06:09AM 42.7395 157.3963 68° East  Level FlightAware Approximate
06:10AM 42.7928 157.5737 68° East  Level FlightAware Approximate
06:11AM 42.8457 157.7514 68° East  Level FlightAware Approximate
06:12AM 42.8984 157.9294 68° East  Level FlightAware Approximate
06:13AM 42.9508 158.1076 68° East  Level FlightAware Approximate
06:14AM 43.0030 158.2862 68° East  Level FlightAware Approximate
06:15AM 43.0548 158.4651 68° East  Level FlightAware Approximate
06:16AM 43.1064 158.6443 68° East  Level FlightAware Approximate
06:17AM 43.1577 158.8238 69° East  Level FlightAware Approximate
06:18AM 43.2087 159.0036 69° East  Level FlightAware Approximate
06:19AM 43.2595 159.1837 69° East  Level FlightAware Approximate
06:20AM 43.3099 159.3641 69° East  Level FlightAware Approximate
06:21AM 43.3601 159.5448 69° East  Level FlightAware Approximate
06:22AM 43.4100 159.7258 69° East  Level FlightAware Approximate
06:23AM 43.4596 159.9071 69° East  Level FlightAware Approximate
06:24AM 43.5089 160.0887 69° East  Level FlightAware Approximate
06:25AM 43.5579 160.2706 70° East  Level FlightAware Approximate
06:26AM 43.6066 160.4528 70° East  Level FlightAware Approximate
06:27AM 43.6551 160.6353 70° East  Level FlightAware Approximate
06:28AM 43.7032 160.8180 70° East  Level FlightAware Approximate
06:29AM 43.7511 161.0011 70° East  Level FlightAware Approximate
06:30AM 43.7986 161.1844 70° East  Level FlightAware Approximate
06:31AM 43.8459 161.3681 70° East  Level FlightAware Approximate
06:32AM 43.8929 161.5520 70° East  Level FlightAware Approximate
06:33AM 43.9396 161.7363 71° East  Level FlightAware Approximate
06:34AM 43.9860 161.9208 71° East  Level FlightAware Approximate
06:35AM 44.0321 162.1056 71° East  Level FlightAware Approximate
06:36AM 44.0775 162.2894 71° East  Level FlightAware Approximate
06:37AM 44.1227 162.4734 71° East  Level FlightAware Approximate
06:38AM 44.1676 162.6578 71° East  Level FlightAware Approximate
06:39AM 44.2122 162.8424 71° East  Level FlightAware Approximate
06:40AM 44.2564 163.0273 71° East  Level FlightAware Approximate
06:41AM 44.3004 163.2125 72° East  Level FlightAware Approximate
06:42AM 44.3441 163.3980 72° East  Level FlightAware Approximate
06:43AM 44.3875 163.5837 72° East  Level FlightAware Approximate
06:44AM 44.4306 163.7697 72° East  Level FlightAware Approximate
06:45AM 44.4734 163.9560 72° East  Level FlightAware Approximate
06:46AM 44.5158 164.1426 72° East  Level FlightAware Approximate
06:47AM 44.5580 164.3294 72° East  Level FlightAware Approximate
06:48AM 44.5999 164.5165 72° East  Level FlightAware Approximate
06:49AM 44.6414 164.7039 73° East  Level FlightAware Approximate
06:50AM 44.6827 164.8915 73° East  Level FlightAware Approximate
06:51AM 44.7237 165.0794 73° East  Level FlightAware Approximate
06:52AM 44.7643 165.2676 73° East  Level FlightAware Approximate
06:53AM 44.8046 165.4560 73° East  Level FlightAware Approximate
06:54AM 44.8446 165.6447 73° East  Level FlightAware Approximate
06:55AM 44.8843 165.8336 73° East  Level FlightAware Approximate
06:56AM 44.9238 166.0229 74° East  Level FlightAware Approximate
06:57AM 44.9628 166.2123 74° East  Level FlightAware Approximate
06:58AM 45.0016 166.4021 74° East  Level FlightAware Approximate
06:59AM 45.0401 166.5921 74° East  Level FlightAware Approximate
07:00AM 45.0782 166.7823 74° East  Level FlightAware Approximate
07:01AM 45.1160 166.9728 74° East  Level FlightAware Approximate
07:02AM 45.1535 167.1635 74° East  Level FlightAware Approximate
07:03AM 45.1907 167.3545 74° East  Level FlightAware Approximate
07:04AM 45.2276 167.5458 75° East  Level FlightAware Approximate
07:05AM 45.2641 167.7373 75° East  Level FlightAware Approximate
07:06AM 45.3004 167.9290 75° East  Level FlightAware Approximate
07:07AM 45.3363 168.1210 75° East  Level FlightAware Approximate
07:08AM 45.3719 168.3132 75° East  Level FlightAware Approximate
07:09AM 45.4071 168.5057 75° East  Level FlightAware Approximate
07:10AM 45.4421 168.6984 75° East  Level FlightAware Approximate
07:11AM 45.4767 168.8913 76° East  Level FlightAware Approximate
07:12AM 45.5110 169.0845 76° East  Level FlightAware Approximate
07:13AM 45.5450 169.2779 76° East  Level FlightAware Approximate
07:13AM 41.0000 170.0000 87° East 514 592 39,000  Level Oakland Oceanic (ODAPS)
07:59AM 41.0500 178.6167 92° East 505 581 39,000  Level Oakland Oceanic (ODAPS)
08:06AM 41.0000 180.0000 87° East 516 594 39,000  Level Oakland Oceanic (ODAPS)
08:13AM 41.0500 -178.7667 88° East 518 596 39,000  Level Oakland Oceanic (ODAPS)
08:28AM 41.1000 -176.1500 89° East 519 597 39,000  Level Oakland Oceanic (ODAPS)
08:40AM 41.1000 -173.5167 91° East 523 602 39,000  Level Oakland Oceanic (ODAPS)
08:54AM 41.0333 -170.8667 93° East 523 602 39,000  Level Oakland Oceanic (ODAPS)
09:17AM 41.1000 -166.7167 89° East 531 611 39,000  Level Oakland Oceanic (ODAPS)
09:20AM 41.1000 -166.0000 89° East 537 618 39,000  Level Oakland Oceanic (ODAPS)
09:22AM 41.1000 -165.5000 90° East 531 611 39,000  Level Oakland Oceanic (ODAPS)
09:35AM 41.0833 -162.8167 91° East 528 608 39,000  Level Oakland Oceanic (ODAPS)
09:50AM 41.0000 -160.1000 90° East 524 603 39,000  Level Oakland Oceanic (ODAPS)
09:51AM 41.0000 -160.0000 87° East 547 629 39,000  Level Oakland Oceanic (ODAPS)
10:03AM 41.0833 -157.3500 88° East 552 635 39,000  Level Oakland Oceanic (ODAPS)
10:17AM 41.1000 -154.5333 90° East 556 640 39,000  Level Oakland Oceanic (ODAPS)
10:31AM 41.0667 -151.7000 92° East 556 640 39,000  Level Oakland Oceanic (ODAPS)
10:39AM 41.0000 -150.0000 87° East 559 643 39,000  Level Oakland Oceanic (ODAPS)
10:45AM 41.0500 -148.9000 88° East 562 647 39,000  Level Oakland Oceanic (ODAPS)
10:58AM 41.1000 -146.0167 89° East 565 650 39,000  Level Oakland Oceanic (ODAPS)
11:22AM 41.1000 -146.0167 89° East 565 650 41,000 60 Climbing Oakland Oceanic (ODAPS)
11:28AM 41.0167 -140.3667 93° East 557 641 41,000  Level Oakland Oceanic (ODAPS)
11:31AM 41.0000 -140.0000 101° East 550 633 41,000  Level Oakland Oceanic (ODAPS)
11:43AM 40.6167 -137.6167 103° East 551 634 41,000  Level Oakland Oceanic (ODAPS)
12:07PM 39.5333 -132.2333 106° East 559 643 41,000  Level Oakland Oceanic (ODAPS)
12:20PM 39.0000 -130.0000 102° East 558 642 41,000  Level Oakland Oceanic (ODAPS)
12:27PM 38.8167 -128.9500 102° East 555 639 41,000 -60 Level Oakland Oceanic (ODAPS)
12:32PM 38.5436 -127.4933 111° Southeast 555 639 40,900  Descending Oakland Center
12:33PM 38.5375 -127.3725 104° East 558 642 41,000 60 Climbing FlightAware Transoceanic
12:33PM 38.5083 -127.3036 103° East 553 636 41,000  Level Oakland Center
12:34PM 38.5031 -127.1941 103° East 555 639 41,000  Level FlightAware Transoceanic
12:34PM 38.4722 -127.1133 104° East 553 636 41,000  Level Oakland Center
12:35PM 38.4667 -127.0000 111° Southeast 555 639 41,000 -120 Level FlightAware Transoceanic
12:35PM 38.4286 -126.9256 106° East 554 638 40,900  Descending Oakland Center
12:36PM 38.4094 -126.8114 111° Southeast 555 639 41,000 60 Climbing FlightAware Transoceanic
12:36PM 38.3725 -126.7447 112° Southeast 552 635 41,000  Level Oakland Center
12:37PM 38.3518 -126.6232 111° Southeast 555 639 41,000 -120 Level FlightAware Transoceanic
12:37PM 38.3175 -126.5664 111° Southeast 547 629 40,900  Descending Oakland Center
12:38PM 38.2939 -126.4352 111° Southeast 555 639 41,000  Climbing FlightAware Transoceanic
12:38PM 38.2403 -126.3544 115° Southeast 550 633 40,900 -60 Descending Oakland Center
12:39PM 38.1828 -126.1967 115° Southeast 548 631 40,900  Level Oakland Center
12:40PM 38.1189 -126.0219 115° Southeast 548 631 40,900  Level Oakland Center
12:41PM 38.0533 -125.8478 116° Southeast 549 632 40,900  Level Oakland Center
12:42PM 37.9744 -125.6389 116° Southeast 549 632 40,900  Level Oakland Center
12:43PM 37.9094 -125.4642 115° Southeast 549 632 41,000  Climbing Oakland Center
12:44PM 37.8444 -125.2911 115° Southeast 548 631 40,900 -60 Descending Oakland Center
12:45PM 37.7775 -125.1167 116° Southeast 551 634 40,900  Level Oakland Center
12:46PM 37.7117 -124.9431 116° Southeast 551 634 40,900  Level Oakland Center
12:47PM 37.6436 -124.7692 116° Southeast 554 638 41,000  Climbing Oakland Center
12:48PM 37.5772 -124.5981 116° Southeast 547 629 41,000  Level Oakland Center
12:49PM 37.5114 -124.4267 116° Southeast 547 629 41,000  Level Oakland Center
12:51PM 37.4306 -124.2222 116° Southeast 546 628 41,000  Level Oakland Center
12:52PM 37.3636 -124.0503 116° Southeast 549 632 41,000 -60 Level Oakland Center
12:53PM 37.2925 -123.8775 117° Southeast 563 648 40,900  Descending Oakland Center
12:54PM 37.2253 -123.7083 116° Southeast 552 635 41,000  Climbing Oakland Center
12:55PM 37.1589 -123.5403 116° Southeast 545 627 41,000 -60 Level Oakland Center
12:56PM 37.0911 -123.3717 117° Southeast 544 626 40,900 -60 Descending Oakland Center
12:57PM 37.0239 -123.2044 117° Southeast 543 625 40,900  Level Oakland Center
01:02PM 36.6282 -122.2450 117° Southeast 544 626 41,000  Climbing FlightAware ADS-B
01:03PM 36.5929 -122.1600 117° Southeast 545 627 41,000 -300 Level FlightAware ADS-B
01:08PM 36.2159 -121.2740 118° Southeast 545 627 39,500 -420 Descending FlightAware ADS-B
01:09PM 36.1822 -121.1933 118° Southeast 544 626 38,800 -1,140 Descending Los Angeles Center
01:10PM 36.1103 -121.0317 119° Southeast 536 617 37,700 -1,080 Descending Los Angeles Center
01:11PM 36.0400 -120.8703 118° Southeast 534 615 36,600 -1,020 Descending Los Angeles Center
01:12PM 35.9706 -120.7081 118° Southeast 533 613 35,600 -840 Descending Los Angeles Center
01:13PM 35.8878 -120.5183 118° Southeast 524 603 34,900 -300 Descending Los Angeles Center
01:14PM 35.8172 -120.3594 119° Southeast 524 603 35,000  Climbing Los Angeles Center
01:15PM 35.7469 -120.2000 118° Southeast 525 604 34,900  Descending Los Angeles Center
01:16PM 35.6756 -120.0408 119° Southeast 525 604 35,000 -840 Climbing Los Angeles Center
01:17PM 35.5714 -119.9119 135° Southeast 530 610 33,200 -1,020 Descending Los Angeles Center
01:18PM 35.4514 -119.8094 145° Southeast 522 601 32,900 -1,080 Descending Los Angeles Center
01:19PM 35.3325 -119.7061 145° Southeast 519 597 31,000 -2,100 Descending Los Angeles Center
01:20PM 35.2158 -119.6067 145° Southeast 512 589 28,600 -2,100 Descending Los Angeles Center
01:21PM 35.0831 -119.4928 145° Southeast 488 562 26,700 -1,920 Descending Los Angeles Center
01:22PM 34.9758 -119.4017 145° Southeast 472 543 24,600 -2,040 Descending Los Angeles Center
01:23PM 34.8719 -119.3133 145° Southeast 459 528 22,500 -1,800 Descending Los Angeles Center
01:24PM 34.7719 -119.2261 144° Southeast 445 512 20,900 -1,560 Descending Los Angeles Center
01:25PM 34.6733 -119.1433 145° Southeast 433 498 19,300 -1,620 Descending Los Angeles Center
01:26PM 34.5636 -119.0556 147° Southeast 423 487 17,600 -1,620 Descending Los Angeles Center
01:27PM 34.4700 -118.9756 145° Southeast 412 474 16,000 -1,560 Descending Los Angeles Center
01:28PM 34.3775 -118.8972 145° Southeast 406 467 14,400 -1,560 Descending Los Angeles Center
01:29PM 34.2747 -118.8511 160° South 393 452 12,800 -1,200 Descending Los Angeles Center
01:30PM 34.1572 -118.8083 163° South 367 422 12,000 -780 Descending Los Angeles Center
01:31PM 34.0683 -118.7750 163° South 334 384 11,200 -960 Descending Los Angeles Center
01:32PM 34.0314 -118.6789 115° Southeast 298 343 10,100 -840 Descending Los Angeles Center
01:34PM 34.0228 -118.5881 97° East 275 316 9,500 -1,080 Descending Los Angeles Center
01:35PM 34.0139 -118.4947 97° East 263 303 7,900 -1,200 Descending Los Angeles Center
01:36PM 34.0147 -118.4269 89° East 251 289 7,000 -540 Descending Los Angeles Center
01:37PM 34.0267 -118.3400 81° East 223 257 6,900 -600 Descending Los Angeles Center
01:38PM 34.0475 -118.2819 67° East 195 224 5,800 -1,140 Descending Los Angeles Center
01:39PM 34.0589 -118.2186 78° East 194 223 4,600 -840 Descending Los Angeles Center
01:44PM 33.9554 -118.3510 78° East 149 171 700 -720 Descending FlightAware ADS-B
01:45PM 33.9519 -118.3922 78° East 156 180 400 -360 Descending Los Angeles Center